sensor_id;sensor_type;location;lat;lon;timestamp;P1;durP1;ratioP1;P2;durP2;ratioP2
74059;SDS011;62414;53.436;8.828;2023-01-13T00:01:35;5.30;;;0.70;;
74059;SDS011;62414;53.436;8.828;2023-01-13T00:04:00;6.27;;;0.57;;
74059;SDS011;62414;53.436;8.828;2023-01-13T00:06:26;6.30;;;0.80;;
74059;SDS011;62414;53.436;8.828;2023-01-13T00:08:51;7.27;;;0.80;;
74059;SDS011;62414;53.436;8.828;2023-01-13T00:11:18;6.07;;;0.90;;
74059;SDS011;62414;53.436;8.828;2023-01-13T00:13:43;6.53;;;0.65;;
74059;SDS011;62414;53.436;8.828;2023-01-13T00:16:11;5.97;;;0.73;;
74059;SDS011;62414;53.436;8.828;2023-01-13T00:18:37;5.78;;;0.52;;
74059;SDS011;62414;53.436;8.828;2023-01-13T00:21:04;4.57;;;0.63;;
74059;SDS011;62414;53.436;8.828;2023-01-13T00:23:31;4.57;;;0.60;;
74059;SDS011;62414;53.436;8.828;2023-01-13T00:25:58;4.60;;;0.80;;
74059;SDS011;62414;53.436;8.828;2023-01-13T00:28:24;5.30;;;0.85;;
74059;SDS011;62414;53.436;8.828;2023-01-13T00:30:50;3.88;;;0.70;;
74059;SDS011;62414;53.436;8.828;2023-01-13T00:33:17;5.73;;;0.60;;
74059;SDS011;62414;53.436;8.828;2023-01-13T00:35:43;5.25;;;0.60;;
74059;SDS011;62414;53.436;8.828;2023-01-13T00:38:08;9.93;;;0.97;;
74059;SDS011;62414;53.436;8.828;2023-01-13T00:40:33;7.10;;;0.90;;
74059;SDS011;62414;53.436;8.828;2023-01-13T00:42:59;5.68;;;0.70;;
74059;SDS011;62414;53.436;8.828;2023-01-13T00:45:24;7.63;;;0.67;;
74059;SDS011;62414;53.436;8.828;2023-01-13T00:47:50;9.87;;;0.90;;
74059;SDS011;62414;53.436;8.828;2023-01-13T00:50:17;9.30;;;0.80;;
74059;SDS011;62414;53.436;8.828;2023-01-13T00:52:42;9.53;;;0.90;;
74059;SDS011;62414;53.436;8.828;2023-01-13T00:55:08;9.68;;;1.23;;
74059;SDS011;62414;53.436;8.828;2023-01-13T00:57:33;6.10;;;0.77;;
74059;SDS011;62414;53.436;8.828;2023-01-13T00:59:59;9.83;;;1.20;;
74059;SDS011;62414;53.436;8.828;2023-01-13T01:02:24;8.20;;;0.80;;
74059;SDS011;62414;53.436;8.828;2023-01-13T01:04:49;9.57;;;1.02;;
74059;SDS011;62414;53.436;8.828;2023-01-13T01:07:16;11.87;;;1.30;;
74059;SDS011;62414;53.436;8.828;2023-01-13T01:09:42;12.05;;;1.35;;
74059;SDS011;62414;53.436;8.828;2023-01-13T01:12:07;7.63;;;1.07;;
74059;SDS011;62414;53.436;8.828;2023-01-13T01:14:32;13.23;;;1.50;;
74059;SDS011;62414;53.436;8.828;2023-01-13T01:16:58;12.95;;;1.15;;
74059;SDS011;62414;53.436;8.828;2023-01-13T01:19:23;11.10;;;1.40;;
74059;SDS011;62414;53.436;8.828;2023-01-13T01:21:49;12.77;;;1.20;;
74059;SDS011;62414;53.436;8.828;2023-01-13T01:24:16;14.35;;;1.85;;
74059;SDS011;62414;53.436;8.828;2023-01-13T01:26:41;13.33;;;1.20;;
74059;SDS011;62414;53.436;8.828;2023-01-13T01:29:07;11.10;;;1.30;;
74059;SDS011;62414;53.436;8.828;2023-01-13T01:31:33;13.77;;;1.20;;
74059;SDS011;62414;53.436;8.828;2023-01-13T01:33:59;14.13;;;1.10;;
74059;SDS011;62414;53.436;8.828;2023-01-13T01:36:25;11.93;;;1.40;;
74059;SDS011;62414;53.436;8.828;2023-01-13T01:38:51;12.50;;;1.33;;
74059;SDS011;62414;53.436;8.828;2023-01-13T01:41:19;10.15;;;1.23;;
74059;SDS011;62414;53.436;8.828;2023-01-13T01:43:48;12.68;;;1.42;;
74059;SDS011;62414;53.436;8.828;2023-01-13T01:46:16;12.27;;;1.10;;
74059;SDS011;62414;53.436;8.828;2023-01-13T01:48:41;18.27;;;1.45;;
74059;SDS011;62414;53.436;8.828;2023-01-13T01:51:08;17.60;;;1.60;;
74059;SDS011;62414;53.436;8.828;2023-01-13T01:53:34;16.13;;;1.67;;
74059;SDS011;62414;53.436;8.828;2023-01-13T01:56:00;14.50;;;1.37;;
74059;SDS011;62414;53.436;8.828;2023-01-13T01:58:28;14.38;;;1.45;;
74059;SDS011;62414;53.436;8.828;2023-01-13T02:00:55;11.43;;;1.38;;
74059;SDS011;62414;53.436;8.828;2023-01-13T02:03:20;14.27;;;1.63;;
74059;SDS011;62414;53.436;8.828;2023-01-13T02:05:46;13.87;;;1.50;;
74059;SDS011;62414;53.436;8.828;2023-01-13T02:08:12;20.17;;;1.87;;
74059;SDS011;62414;53.436;8.828;2023-01-13T02:10:37;21.02;;;2.05;;
74059;SDS011;62414;53.436;8.828;2023-01-13T02:13:05;16.77;;;1.77;;
74059;SDS011;62414;53.436;8.828;2023-01-13T02:15:34;13.95;;;1.42;;
74059;SDS011;62414;53.436;8.828;2023-01-13T02:20:59;14.23;;;1.40;;
74059;SDS011;62414;53.436;8.828;2023-01-13T02:23:53;12.32;;;1.17;;
74059;SDS011;62414;53.436;8.828;2023-01-13T02:29:32;15.38;;;1.40;;
74059;SDS011;62414;53.436;8.828;2023-01-13T02:32:15;12.52;;;1.52;;
74059;SDS011;62414;53.436;8.828;2023-01-13T02:34:44;16.97;;;1.67;;
74059;SDS011;62414;53.436;8.828;2023-01-13T02:37:12;16.92;;;1.70;;
74059;SDS011;62414;53.436;8.828;2023-01-13T02:39:40;14.82;;;1.60;;
74059;SDS011;62414;53.436;8.828;2023-01-13T02:42:10;14.27;;;1.45;;
74059;SDS011;62414;53.436;8.828;2023-01-13T02:44:40;18.83;;;1.80;;
74059;SDS011;62414;53.436;8.828;2023-01-13T02:47:09;16.93;;;1.50;;
74059;SDS011;62414;53.436;8.828;2023-01-13T02:49:40;18.75;;;1.95;;
74059;SDS011;62414;53.436;8.828;2023-01-13T02:52:09;17.25;;;2.22;;
74059;SDS011;62414;53.436;8.828;2023-01-13T02:54:36;17.73;;;1.70;;
74059;SDS011;62414;53.436;8.828;2023-01-13T02:57:02;19.90;;;2.20;;
74059;SDS011;62414;53.436;8.828;2023-01-13T02:59:29;19.20;;;2.27;;
74059;SDS011;62414;53.436;8.828;2023-01-13T03:01:56;22.27;;;2.03;;
74059;SDS011;62414;53.436;8.828;2023-01-13T03:04:43;23.05;;;2.35;;
74059;SDS011;62414;53.436;8.828;2023-01-13T03:07:11;22.73;;;2.40;;
74059;SDS011;62414;53.436;8.828;2023-01-13T03:09:40;30.63;;;2.80;;
74059;SDS011;62414;53.436;8.828;2023-01-13T03:12:09;24.77;;;2.50;;
74059;SDS011;62414;53.436;8.828;2023-01-13T03:14:39;22.10;;;2.00;;
74059;SDS011;62414;53.436;8.828;2023-01-13T03:17:12;19.08;;;2.40;;
74059;SDS011;62414;53.436;8.828;2023-01-13T03:19:42;25.63;;;2.30;;
74059;SDS011;62414;53.436;8.828;2023-01-13T03:22:14;23.17;;;2.55;;
74059;SDS011;62414;53.436;8.828;2023-01-13T03:24:46;19.27;;;2.10;;
74059;SDS011;62414;53.436;8.828;2023-01-13T03:27:14;25.67;;;2.50;;
74059;SDS011;62414;53.436;8.828;2023-01-13T03:29:45;22.55;;;2.38;;
74059;SDS011;62414;53.436;8.828;2023-01-13T03:32:16;24.05;;;2.45;;
74059;SDS011;62414;53.436;8.828;2023-01-13T03:34:46;23.35;;;2.42;;
74059;SDS011;62414;53.436;8.828;2023-01-13T03:37:14;22.67;;;2.37;;
74059;SDS011;62414;53.436;8.828;2023-01-13T03:39:44;22.38;;;2.10;;
74059;SDS011;62414;53.436;8.828;2023-01-13T03:42:12;24.83;;;2.35;;
74059;SDS011;62414;53.436;8.828;2023-01-13T03:44:41;25.88;;;2.50;;
74059;SDS011;62414;53.436;8.828;2023-01-13T03:47:11;16.50;;;2.47;;
74059;SDS011;62414;53.436;8.828;2023-01-13T03:49:44;23.37;;;2.47;;
74059;SDS011;62414;53.436;8.828;2023-01-13T03:52:17;16.63;;;2.08;;
74059;SDS011;62414;53.436;8.828;2023-01-13T03:54:48;25.02;;;2.30;;
74059;SDS011;62414;53.436;8.828;2023-01-13T03:57:17;19.08;;;2.30;;
74059;SDS011;62414;53.436;8.828;2023-01-13T03:59:46;18.75;;;2.20;;
74059;SDS011;62414;53.436;8.828;2023-01-13T04:02:13;22.13;;;2.00;;
74059;SDS011;62414;53.436;8.828;2023-01-13T04:04:44;21.92;;;2.20;;
74059;SDS011;62414;53.436;8.828;2023-01-13T04:07:14;20.55;;;2.00;;
74059;SDS011;62414;53.436;8.828;2023-01-13T04:09:46;19.60;;;2.00;;
74059;SDS011;62414;53.436;8.828;2023-01-13T04:12:13;19.25;;;2.22;;
74059;SDS011;62414;53.436;8.828;2023-01-13T04:14:43;20.27;;;1.93;;
74059;SDS011;62414;53.436;8.828;2023-01-13T04:17:09;18.95;;;2.00;;
74059;SDS011;62414;53.436;8.828;2023-01-13T04:19:36;22.02;;;2.35;;
74059;SDS011;62414;53.436;8.828;2023-01-13T04:22:01;18.27;;;1.97;;
74059;SDS011;62414;53.436;8.828;2023-01-13T04:24:27;19.98;;;2.15;;
74059;SDS011;62414;53.436;8.828;2023-01-13T04:26:52;17.97;;;2.27;;
74059;SDS011;62414;53.436;8.828;2023-01-13T04:29:17;21.60;;;2.20;;
74059;SDS011;62414;53.436;8.828;2023-01-13T04:31:43;22.50;;;2.00;;
74059;SDS011;62414;53.436;8.828;2023-01-13T04:34:08;17.33;;;1.97;;
74059;SDS011;62414;53.436;8.828;2023-01-13T04:36:35;23.07;;;2.43;;
74059;SDS011;62414;53.436;8.828;2023-01-13T04:39:01;23.10;;;2.60;;
74059;SDS011;62414;53.436;8.828;2023-01-13T04:41:26;18.47;;;2.50;;
74059;SDS011;62414;53.436;8.828;2023-01-13T04:43:52;21.10;;;2.28;;
74059;SDS011;62414;53.436;8.828;2023-01-13T04:46:17;22.90;;;2.53;;
74059;SDS011;62414;53.436;8.828;2023-01-13T04:48:43;24.97;;;2.40;;
74059;SDS011;62414;53.436;8.828;2023-01-13T04:51:08;25.00;;;2.38;;
74059;SDS011;62414;53.436;8.828;2023-01-13T04:53:35;22.03;;;2.33;;
74059;SDS011;62414;53.436;8.828;2023-01-13T04:56:00;18.25;;;2.28;;
74059;SDS011;62414;53.436;8.828;2023-01-13T04:58:26;25.17;;;2.57;;
74059;SDS011;62414;53.436;8.828;2023-01-13T05:00:51;21.03;;;2.43;;
74059;SDS011;62414;53.436;8.828;2023-01-13T05:03:16;23.88;;;2.30;;
74059;SDS011;62414;53.436;8.828;2023-01-13T05:05:42;24.73;;;2.40;;
74059;SDS011;62414;53.436;8.828;2023-01-13T05:08:07;19.87;;;1.83;;
74059;SDS011;62414;53.436;8.828;2023-01-13T05:10:34;33.53;;;3.03;;
74059;SDS011;62414;53.436;8.828;2023-01-13T05:12:59;22.13;;;2.77;;
74059;SDS011;62414;53.436;8.828;2023-01-13T05:15:25;18.73;;;2.20;;
74059;SDS011;62414;53.436;8.828;2023-01-13T05:17:50;23.97;;;2.80;;
74059;SDS011;62414;53.436;8.828;2023-01-13T05:20:16;18.40;;;2.63;;
74059;SDS011;62414;53.436;8.828;2023-01-13T05:22:42;22.60;;;2.33;;
74059;SDS011;62414;53.436;8.828;2023-01-13T05:25:07;26.37;;;2.50;;
74059;SDS011;62414;53.436;8.828;2023-01-13T05:27:34;26.85;;;2.47;;
74059;SDS011;62414;53.436;8.828;2023-01-13T05:30:00;20.90;;;2.28;;
74059;SDS011;62414;53.436;8.828;2023-01-13T05:32:26;25.20;;;2.50;;
74059;SDS011;62414;53.436;8.828;2023-01-13T05:34:51;20.15;;;2.67;;
74059;SDS011;62414;53.436;8.828;2023-01-13T05:37:16;15.93;;;2.20;;
74059;SDS011;62414;53.436;8.828;2023-01-13T05:39:42;19.87;;;2.27;;
74059;SDS011;62414;53.436;8.828;2023-01-13T05:42:07;17.47;;;1.90;;
74059;SDS011;62414;53.436;8.828;2023-01-13T05:44:34;21.75;;;2.10;;
74059;SDS011;62414;53.436;8.828;2023-01-13T05:47:00;23.92;;;2.30;;
74059;SDS011;62414;53.436;8.828;2023-01-13T05:49:25;17.87;;;2.60;;
74059;SDS011;62414;53.436;8.828;2023-01-13T05:51:50;19.23;;;2.20;;
74059;SDS011;62414;53.436;8.828;2023-01-13T05:54:16;19.50;;;2.83;;
74059;SDS011;62414;53.436;8.828;2023-01-13T05:56:41;21.35;;;2.42;;
74059;SDS011;62414;53.436;8.828;2023-01-13T05:59:07;25.73;;;2.73;;
74059;SDS011;62414;53.436;8.828;2023-01-13T06:01:33;15.97;;;2.23;;
74059;SDS011;62414;53.436;8.828;2023-01-13T06:03:59;23.00;;;2.70;;
74059;SDS011;62414;53.436;8.828;2023-01-13T06:06:24;17.97;;;2.63;;
74059;SDS011;62414;53.436;8.828;2023-01-13T06:08:50;19.92;;;2.70;;
74059;SDS011;62414;53.436;8.828;2023-01-13T06:11:15;24.67;;;2.80;;
74059;SDS011;62414;53.436;8.828;2023-01-13T06:13:40;23.67;;;3.00;;
74059;SDS011;62414;53.436;8.828;2023-01-13T06:16:06;26.63;;;3.23;;
74059;SDS011;62414;53.436;8.828;2023-01-13T06:18:33;21.23;;;2.40;;
74059;SDS011;62414;53.436;8.828;2023-01-13T06:20:58;20.63;;;2.55;;
74059;SDS011;62414;53.436;8.828;2023-01-13T06:23:24;18.03;;;2.43;;
74059;SDS011;62414;53.436;8.828;2023-01-13T06:25:51;18.40;;;2.83;;
74059;SDS011;62414;53.436;8.828;2023-01-13T06:28:20;18.08;;;2.20;;
74059;SDS011;62414;53.436;8.828;2023-01-13T06:30:46;17.80;;;2.77;;
74059;SDS011;62414;53.436;8.828;2023-01-13T06:33:14;25.52;;;3.25;;
74059;SDS011;62414;53.436;8.828;2023-01-13T06:35:42;23.88;;;2.80;;
74059;SDS011;62414;53.436;8.828;2023-01-13T06:38:09;19.45;;;2.75;;
74059;SDS011;62414;53.436;8.828;2023-01-13T06:40:37;23.08;;;2.85;;
74059;SDS011;62414;53.436;8.828;2023-01-13T06:43:02;22.40;;;2.67;;
74059;SDS011;62414;53.436;8.828;2023-01-13T06:45:28;23.67;;;2.47;;
74059;SDS011;62414;53.436;8.828;2023-01-13T06:47:54;21.15;;;2.97;;
74059;SDS011;62414;53.436;8.828;2023-01-13T06:50:20;30.25;;;2.60;;
74059;SDS011;62414;53.436;8.828;2023-01-13T06:52:47;19.87;;;2.37;;
74059;SDS011;62414;53.436;8.828;2023-01-13T06:55:12;31.27;;;2.85;;
74059;SDS011;62414;53.436;8.828;2023-01-13T06:57:46;18.97;;;2.63;;
74059;SDS011;62414;53.436;8.828;2023-01-13T07:00:15;19.80;;;2.58;;
74059;SDS011;62414;53.436;8.828;2023-01-13T07:02:40;20.88;;;2.45;;
74059;SDS011;62414;53.436;8.828;2023-01-13T07:05:06;19.77;;;2.37;;
74059;SDS011;62414;53.436;8.828;2023-01-13T07:07:32;23.02;;;2.72;;
74059;SDS011;62414;53.436;8.828;2023-01-13T07:09:59;23.77;;;2.80;;
74059;SDS011;62414;53.436;8.828;2023-01-13T07:12:24;24.85;;;2.50;;
74059;SDS011;62414;53.436;8.828;2023-01-13T07:14:50;23.95;;;2.50;;
74059;SDS011;62414;53.436;8.828;2023-01-13T07:17:15;21.53;;;2.40;;
74059;SDS011;62414;53.436;8.828;2023-01-13T07:19:40;22.20;;;2.60;;
74059;SDS011;62414;53.436;8.828;2023-01-13T07:22:06;17.73;;;2.13;;
74059;SDS011;62414;53.436;8.828;2023-01-13T07:24:31;21.02;;;2.28;;
74059;SDS011;62414;53.436;8.828;2023-01-13T07:26:58;20.73;;;2.17;;
74059;SDS011;62414;53.436;8.828;2023-01-13T07:29:23;22.02;;;2.70;;
74059;SDS011;62414;53.436;8.828;2023-01-13T07:31:49;21.93;;;2.60;;
74059;SDS011;62414;53.436;8.828;2023-01-13T07:34:14;21.93;;;2.57;;
74059;SDS011;62414;53.436;8.828;2023-01-13T07:36:40;23.08;;;3.03;;
74059;SDS011;62414;53.436;8.828;2023-01-13T07:39:05;20.80;;;2.40;;
74059;SDS011;62414;53.436;8.828;2023-01-13T07:41:31;19.47;;;2.23;;
74059;SDS011;62414;53.436;8.828;2023-01-13T07:43:58;14.27;;;2.10;;
74059;SDS011;62414;53.436;8.828;2023-01-13T07:46:23;18.13;;;1.98;;
74059;SDS011;62414;53.436;8.828;2023-01-13T07:48:49;19.03;;;2.50;;
74059;SDS011;62414;53.436;8.828;2023-01-13T07:51:14;13.03;;;2.17;;
74059;SDS011;62414;53.436;8.828;2023-01-13T07:53:39;16.47;;;1.93;;
74059;SDS011;62414;53.436;8.828;2023-01-13T07:56:05;17.05;;;2.30;;
74059;SDS011;62414;53.436;8.828;2023-01-13T07:58:32;26.17;;;2.17;;
74059;SDS011;62414;53.436;8.828;2023-01-13T08:00:59;14.07;;;1.90;;
74059;SDS011;62414;53.436;8.828;2023-01-13T08:03:25;16.65;;;2.03;;
74059;SDS011;62414;53.436;8.828;2023-01-13T08:05:51;16.98;;;2.47;;
74059;SDS011;62414;53.436;8.828;2023-01-13T08:08:16;17.70;;;2.30;;
74059;SDS011;62414;53.436;8.828;2023-01-13T08:10:42;20.35;;;2.08;;
74059;SDS011;62414;53.436;8.828;2023-01-13T08:13:07;12.53;;;1.80;;
74059;SDS011;62414;53.436;8.828;2023-01-13T08:15:33;21.15;;;2.10;;
74059;SDS011;62414;53.436;8.828;2023-01-13T08:18:00;17.40;;;2.13;;
74059;SDS011;62414;53.436;8.828;2023-01-13T08:20:26;19.83;;;2.55;;
74059;SDS011;62414;53.436;8.828;2023-01-13T08:22:54;16.50;;;2.03;;
74059;SDS011;62414;53.436;8.828;2023-01-13T08:25:21;17.00;;;2.38;;
74059;SDS011;62414;53.436;8.828;2023-01-13T08:27:47;18.03;;;1.80;;
74059;SDS011;62414;53.436;8.828;2023-01-13T08:30:13;15.60;;;1.95;;
74059;SDS011;62414;53.436;8.828;2023-01-13T08:32:38;12.73;;;1.70;;
74059;SDS011;62414;53.436;8.828;2023-01-13T08:35:05;16.17;;;1.70;;
74059;SDS011;62414;53.436;8.828;2023-01-13T08:37:32;12.75;;;1.73;;
74059;SDS011;62414;53.436;8.828;2023-01-13T08:39:57;15.63;;;1.67;;
74059;SDS011;62414;53.436;8.828;2023-01-13T08:42:22;17.07;;;1.83;;
74059;SDS011;62414;53.436;8.828;2023-01-13T08:44:48;13.33;;;1.63;;
74059;SDS011;62414;53.436;8.828;2023-01-13T08:47:13;13.85;;;1.58;;
74059;SDS011;62414;53.436;8.828;2023-01-13T08:49:39;13.43;;;1.30;;
74059;SDS011;62414;53.436;8.828;2023-01-13T08:52:05;14.43;;;1.50;;
74059;SDS011;62414;53.436;8.828;2023-01-13T08:54:31;11.02;;;1.15;;
74059;SDS011;62414;53.436;8.828;2023-01-13T08:56:56;12.13;;;1.33;;
74059;SDS011;62414;53.436;8.828;2023-01-13T08:59:22;12.67;;;1.57;;
74059;SDS011;62414;53.436;8.828;2023-01-13T09:01:47;10.20;;;0.93;;
74059;SDS011;62414;53.436;8.828;2023-01-13T09:04:14;11.40;;;1.40;;
74059;SDS011;62414;53.436;8.828;2023-01-13T09:06:40;11.55;;;1.20;;
74059;SDS011;62414;53.436;8.828;2023-01-13T09:09:07;10.30;;;1.10;;
74059;SDS011;62414;53.436;8.828;2023-01-13T09:11:33;13.83;;;1.30;;
74059;SDS011;62414;53.436;8.828;2023-01-13T09:14:00;10.07;;;1.20;;
74059;SDS011;62414;53.436;8.828;2023-01-13T09:16:25;16.70;;;1.73;;
74059;SDS011;62414;53.436;8.828;2023-01-13T09:18:51;15.77;;;1.73;;
74059;SDS011;62414;53.436;8.828;2023-01-13T09:21:16;13.13;;;1.60;;
74059;SDS011;62414;53.436;8.828;2023-01-13T09:23:42;11.17;;;1.33;;
74059;SDS011;62414;53.436;8.828;2023-01-13T09:26:09;14.45;;;2.00;;
74059;SDS011;62414;53.436;8.828;2023-01-13T09:28:35;18.88;;;1.98;;
74059;SDS011;62414;53.436;8.828;2023-01-13T09:31:00;12.53;;;1.47;;
74059;SDS011;62414;53.436;8.828;2023-01-13T09:33:26;18.10;;;1.53;;
74059;SDS011;62414;53.436;8.828;2023-01-13T09:35:51;13.17;;;1.53;;
74059;SDS011;62414;53.436;8.828;2023-01-13T09:38:21;11.80;;;1.35;;
74059;SDS011;62414;53.436;8.828;2023-01-13T09:40:47;12.47;;;1.47;;
74059;SDS011;62414;53.436;8.828;2023-01-13T09:43:16;11.13;;;1.30;;
74059;SDS011;62414;53.436;8.828;2023-01-13T09:45:45;9.40;;;1.05;;
74059;SDS011;62414;53.436;8.828;2023-01-13T09:48:13;14.60;;;2.20;;
74059;SDS011;62414;53.436;8.828;2023-01-13T09:50:43;13.00;;;1.33;;
74059;SDS011;62414;53.436;8.828;2023-01-13T09:53:14;13.93;;;1.42;;
74059;SDS011;62414;53.436;8.828;2023-01-13T09:55:43;13.00;;;1.83;;
74059;SDS011;62414;53.436;8.828;2023-01-13T09:58:10;9.70;;;1.27;;
74059;SDS011;62414;53.436;8.828;2023-01-13T10:00:39;12.30;;;1.13;;
74059;SDS011;62414;53.436;8.828;2023-01-13T10:03:16;14.07;;;1.50;;
74059;SDS011;62414;53.436;8.828;2023-01-13T10:05:43;10.20;;;1.50;;
74059;SDS011;62414;53.436;8.828;2023-01-13T10:08:14;11.00;;;1.50;;
74059;SDS011;62414;53.436;8.828;2023-01-13T10:10:43;9.10;;;0.90;;
74059;SDS011;62414;53.436;8.828;2023-01-13T10:13:14;8.27;;;1.20;;
74059;SDS011;62414;53.436;8.828;2023-01-13T10:15:48;9.20;;;1.30;;
74059;SDS011;62414;53.436;8.828;2023-01-13T10:18:20;14.07;;;1.15;;
74059;SDS011;62414;53.436;8.828;2023-01-13T10:20:51;10.73;;;1.70;;
74059;SDS011;62414;53.436;8.828;2023-01-13T10:23:27;8.38;;;1.00;;
74059;SDS011;62414;53.436;8.828;2023-01-13T10:26:00;10.27;;;1.40;;
74059;SDS011;62414;53.436;8.828;2023-01-13T10:28:27;10.88;;;1.48;;
74059;SDS011;62414;53.436;8.828;2023-01-13T10:30:54;12.07;;;1.30;;
74059;SDS011;62414;53.436;8.828;2023-01-13T10:33:21;9.30;;;1.50;;
74059;SDS011;62414;53.436;8.828;2023-01-13T10:38:24;18.15;;;1.48;;
74059;SDS011;62414;53.436;8.828;2023-01-13T10:40:52;12.25;;;1.77;;
74059;SDS011;62414;53.436;8.828;2023-01-13T10:43:19;11.35;;;1.10;;
74059;SDS011;62414;53.436;8.828;2023-01-13T10:48:35;9.13;;;1.15;;
74059;SDS011;62414;53.436;8.828;2023-01-13T10:51:09;11.32;;;1.17;;
74059;SDS011;62414;53.436;8.828;2023-01-13T10:53:49;10.10;;;1.10;;
74059;SDS011;62414;53.436;8.828;2023-01-13T10:56:16;14.23;;;1.50;;
74059;SDS011;62414;53.436;8.828;2023-01-13T10:58:43;10.93;;;1.10;;
74059;SDS011;62414;53.436;8.828;2023-01-13T11:01:13;14.80;;;1.80;;
74059;SDS011;62414;53.436;8.828;2023-01-13T11:03:44;11.13;;;1.42;;
74059;SDS011;62414;53.436;8.828;2023-01-13T11:06:19;8.53;;;1.00;;
74059;SDS011;62414;53.436;8.828;2023-01-13T11:08:46;16.92;;;1.80;;
74059;SDS011;62414;53.436;8.828;2023-01-13T11:11:27;10.10;;;1.52;;
74059;SDS011;62414;53.436;8.828;2023-01-13T11:14:01;11.35;;;1.65;;
74059;SDS011;62414;53.436;8.828;2023-01-13T11:16:39;11.63;;;1.63;;
74059;SDS011;62414;53.436;8.828;2023-01-13T11:19:06;13.47;;;1.50;;
74059;SDS011;62414;53.436;8.828;2023-01-13T11:21:36;13.23;;;1.88;;
74059;SDS011;62414;53.436;8.828;2023-01-13T11:24:04;12.52;;;3.83;;
74059;SDS011;62414;53.436;8.828;2023-01-13T11:26:37;11.55;;;1.88;;
74059;SDS011;62414;53.436;8.828;2023-01-13T11:29:08;16.15;;;1.80;;
74059;SDS011;62414;53.436;8.828;2023-01-13T11:31:39;15.77;;;1.70;;
74059;SDS011;62414;53.436;8.828;2023-01-13T11:34:07;11.50;;;1.40;;
74059;SDS011;62414;53.436;8.828;2023-01-13T11:36:38;15.18;;;2.17;;
74059;SDS011;62414;53.436;8.828;2023-01-13T11:39:09;14.20;;;1.90;;
74059;SDS011;62414;53.436;8.828;2023-01-13T11:41:41;12.07;;;1.80;;
74059;SDS011;62414;53.436;8.828;2023-01-13T11:44:11;14.63;;;1.73;;
74059;SDS011;62414;53.436;8.828;2023-01-13T11:46:42;13.52;;;1.30;;
74059;SDS011;62414;53.436;8.828;2023-01-13T11:49:08;13.02;;;1.83;;
74059;SDS011;62414;53.436;8.828;2023-01-13T11:51:42;13.77;;;2.33;;
74059;SDS011;62414;53.436;8.828;2023-01-13T11:54:17;14.05;;;2.15;;
74059;SDS011;62414;53.436;8.828;2023-01-13T11:57:00;12.13;;;1.90;;
74059;SDS011;62414;53.436;8.828;2023-01-13T12:02:28;15.15;;;2.05;;
74059;SDS011;62414;53.436;8.828;2023-01-13T12:05:07;12.20;;;1.40;;
74059;SDS011;62414;53.436;8.828;2023-01-13T12:07:40;12.60;;;1.70;;
74059;SDS011;62414;53.436;8.828;2023-01-13T12:10:08;14.13;;;2.70;;
74059;SDS011;62414;53.436;8.828;2023-01-13T12:12:41;12.88;;;1.73;;
74059;SDS011;62414;53.436;8.828;2023-01-13T12:18:14;13.70;;;1.35;;
74059;SDS011;62414;53.436;8.828;2023-01-13T12:20:50;10.82;;;1.70;;
74059;SDS011;62414;53.436;8.828;2023-01-13T12:23:26;15.43;;;1.60;;
74059;SDS011;62414;53.436;8.828;2023-01-13T12:25:53;13.57;;;1.70;;
74059;SDS011;62414;53.436;8.828;2023-01-13T12:28:22;17.90;;;2.22;;
74059;SDS011;62414;53.436;8.828;2023-01-13T12:30:50;14.32;;;1.50;;
74059;SDS011;62414;53.436;8.828;2023-01-13T12:33:22;10.88;;;1.42;;
74059;SDS011;62414;53.436;8.828;2023-01-13T12:35:53;11.93;;;1.40;;
74059;SDS011;62414;53.436;8.828;2023-01-13T12:38:24;15.18;;;1.60;;
74059;SDS011;62414;53.436;8.828;2023-01-13T12:40:53;11.45;;;1.40;;
74059;SDS011;62414;53.436;8.828;2023-01-13T12:43:24;11.65;;;1.45;;
74059;SDS011;62414;53.436;8.828;2023-01-13T12:45:50;10.97;;;1.20;;
74059;SDS011;62414;53.436;8.828;2023-01-13T12:51:19;11.48;;;1.75;;
74059;SDS011;62414;53.436;8.828;2023-01-13T12:53:47;17.50;;;1.90;;
74059;SDS011;62414;53.436;8.828;2023-01-13T13:04:57;12.00;;;1.48;;
74059;SDS011;62414;53.436;8.828;2023-01-13T13:07:29;13.23;;;1.55;;
74059;SDS011;62414;53.436;8.828;2023-01-13T13:09:58;10.88;;;1.40;;
74059;SDS011;62414;53.436;8.828;2023-01-13T13:12:46;15.27;;;1.67;;
74059;SDS011;62414;53.436;8.828;2023-01-13T13:15:19;12.23;;;1.50;;
74059;SDS011;62414;53.436;8.828;2023-01-13T13:17:59;14.23;;;2.08;;
74059;SDS011;62414;53.436;8.828;2023-01-13T13:23:28;18.77;;;1.83;;
74059;SDS011;62414;53.436;8.828;2023-01-13T13:26:02;11.50;;;1.53;;
74059;SDS011;62414;53.436;8.828;2023-01-13T13:28:31;15.45;;;1.80;;
74059;SDS011;62414;53.436;8.828;2023-01-13T13:31:20;11.30;;;1.88;;
74059;SDS011;62414;53.436;8.828;2023-01-13T13:33:59;12.48;;;1.55;;
74059;SDS011;62414;53.436;8.828;2023-01-13T13:36:38;12.50;;;1.55;;
74059;SDS011;62414;53.436;8.828;2023-01-13T13:39:15;10.63;;;1.60;;
74059;SDS011;62414;53.436;8.828;2023-01-13T13:41:43;13.07;;;1.58;;
74059;SDS011;62414;53.436;8.828;2023-01-13T13:44:12;12.88;;;1.42;;
74059;SDS011;62414;53.436;8.828;2023-01-13T13:46:43;11.25;;;1.60;;
74059;SDS011;62414;53.436;8.828;2023-01-13T13:49:09;13.95;;;1.80;;
74059;SDS011;62414;53.436;8.828;2023-01-13T13:51:37;10.47;;;1.40;;
74059;SDS011;62414;53.436;8.828;2023-01-13T13:54:04;12.18;;;1.80;;
74059;SDS011;62414;53.436;8.828;2023-01-13T13:56:31;13.33;;;2.10;;
74059;SDS011;62414;53.436;8.828;2023-01-13T13:59:02;15.32;;;1.73;;
74059;SDS011;62414;53.436;8.828;2023-01-13T14:01:28;11.85;;;1.95;;
74059;SDS011;62414;53.436;8.828;2023-01-13T14:04:05;10.43;;;1.37;;
74059;SDS011;62414;53.436;8.828;2023-01-13T14:06:31;13.25;;;1.60;;
74059;SDS011;62414;53.436;8.828;2023-01-13T14:08:58;15.03;;;2.20;;
74059;SDS011;62414;53.436;8.828;2023-01-13T14:11:24;13.43;;;2.03;;
74059;SDS011;62414;53.436;8.828;2023-01-13T14:13:59;20.45;;;2.80;;
74059;SDS011;62414;53.436;8.828;2023-01-13T14:16:25;14.65;;;2.67;;
74059;SDS011;62414;53.436;8.828;2023-01-13T14:18:50;20.37;;;3.97;;
74059;SDS011;62414;53.436;8.828;2023-01-13T14:21:17;19.17;;;3.93;;
74059;SDS011;62414;53.436;8.828;2023-01-13T14:23:48;20.60;;;3.40;;
74059;SDS011;62414;53.436;8.828;2023-01-13T14:26:15;17.02;;;3.30;;
74059;SDS011;62414;53.436;8.828;2023-01-13T14:28:41;14.88;;;2.13;;
74059;SDS011;62414;53.436;8.828;2023-01-13T14:31:07;12.35;;;2.08;;
74059;SDS011;62414;53.436;8.828;2023-01-13T14:33:34;11.47;;;1.43;;
74059;SDS011;62414;53.436;8.828;2023-01-13T14:36:04;7.15;;;1.10;;
74059;SDS011;62414;53.436;8.828;2023-01-13T14:38:41;8.30;;;1.70;;
74059;SDS011;62414;53.436;8.828;2023-01-13T14:41:09;6.63;;;1.10;;
74059;SDS011;62414;53.436;8.828;2023-01-13T14:43:44;8.95;;;1.80;;
74059;SDS011;62414;53.436;8.828;2023-01-13T14:46:10;10.53;;;1.70;;
74059;SDS011;62414;53.436;8.828;2023-01-13T14:48:36;15.00;;;2.63;;
74059;SDS011;62414;53.436;8.828;2023-01-13T14:51:02;12.63;;;2.00;;
74059;SDS011;62414;53.436;8.828;2023-01-13T14:53:34;16.00;;;2.70;;
74059;SDS011;62414;53.436;8.828;2023-01-13T15:02:27;17.35;;;2.60;;
74059;SDS011;62414;53.436;8.828;2023-01-13T15:07:52;14.43;;;2.05;;
74059;SDS011;62414;53.436;8.828;2023-01-13T15:10:18;19.08;;;2.08;;
74059;SDS011;62414;53.436;8.828;2023-01-13T15:12:48;15.93;;;2.40;;
74059;SDS011;62414;53.436;8.828;2023-01-13T15:15:19;13.85;;;1.88;;
74059;SDS011;62414;53.436;8.828;2023-01-13T15:17:47;10.00;;;1.77;;
74059;SDS011;62414;53.436;8.828;2023-01-13T15:22:38;16.05;;;2.50;;
74059;SDS011;62414;53.436;8.828;2023-01-13T15:25:04;19.10;;;3.50;;